sensor_id;sensor_type;location;lat;lon;timestamp;temperature;humidity
21387;DHT22;10854;45.922;6.716;2023-02-28T00:02:19;-2.50;99.90
21387;DHT22;10854;45.922;6.716;2023-02-28T00:04:47;-2.40;99.90
21387;DHT22;10854;45.922;6.716;2023-02-28T00:07:20;-2.40;99.90
21387;DHT22;10854;45.922;6.716;2023-02-28T00:09:48;-2.40;99.90
21387;DHT22;10854;45.922;6.716;2023-02-28T00:12:17;-2.30;99.90
21387;DHT22;10854;45.922;6.716;2023-02-28T00:14:45;-2.30;99.90
21387;DHT22;10854;45.922;6.716;2023-02-28T00:17:13;-2.30;99.90
21387;DHT22;10854;45.922;6.716;2023-02-28T00:19:41;-2.30;99.90
21387;DHT22;10854;45.922;6.716;2023-02-28T00:22:10;-2.30;99.90
21387;DHT22;10854;45.922;6.716;2023-02-28T00:24:38;-2.30;99.90
21387;DHT22;10854;45.922;6.716;2023-02-28T00:27:06;-2.20;99.90
21387;DHT22;10854;45.922;6.716;2023-02-28T00:29:35;-2.20;99.90
21387;DHT22;10854;45.922;6.716;2023-02-28T00:32:04;-2.20;99.90
21387;DHT22;10854;45.922;6.716;2023-02-28T00:34:33;-2.20;99.90
21387;DHT22;10854;45.922;6.716;2023-02-28T00:37:06;-2.20;99.90
21387;DHT22;10854;45.922;6.716;2023-02-28T00:39:36;-2.20;99.90
21387;DHT22;10854;45.922;6.716;2023-02-28T00:42:06;-2.30;99.90
21387;DHT22;10854;45.922;6.716;2023-02-28T00:44:35;-2.20;99.90
21387;DHT22;10854;45.922;6.716;2023-02-28T00:47:03;-2.30;99.90
21387;DHT22;10854;45.922;6.716;2023-02-28T00:49:31;-2.30;99.90
21387;DHT22;10854;45.922;6.716;2023-02-28T00:51:59;-2.30;99.90
21387;DHT22;10854;45.922;6.716;2023-02-28T00:54:29;-2.30;99.90
21387;DHT22;10854;45.922;6.716;2023-02-28T00:56:57;-2.30;99.90
21387;DHT22;10854;45.922;6.716;2023-02-28T00:59:25;-2.20;99.90
21387;DHT22;10854;45.922;6.716;2023-02-28T01:01:53;-2.20;99.90
21387;DHT22;10854;45.922;6.716;2023-02-28T01:04:22;-2.20;99.90
21387;DHT22;10854;45.922;6.716;2023-02-28T01:06:50;-2.20;99.90
21387;DHT22;10854;45.922;6.716;2023-02-28T01:09:18;-2.10;99.90
21387;DHT22;10854;45.922;6.716;2023-02-28T01:11:46;-2.10;99.90
21387;DHT22;10854;45.922;6.716;2023-02-28T01:14:16;-2.10;99.90
21387;DHT22;10854;45.922;6.716;2023-02-28T01:16:44;-2.00;99.90
21387;DHT22;10854;45.922;6.716;2023-02-28T01:19:12;-2.00;99.90
21387;DHT22;10854;45.922;6.716;2023-02-28T01:21:41;-2.00;99.90
21387;DHT22;10854;45.922;6.716;2023-02-28T01:24:10;-1.90;99.90
21387;DHT22;10854;45.922;6.716;2023-02-28T01:26:38;-1.80;99.90
21387;DHT22;10854;45.922;6.716;2023-02-28T01:29:07;-1.70;99.90
21387;DHT22;10854;45.922;6.716;2023-02-28T01:31:35;-1.60;99.90
21387;DHT22;10854;45.922;6.716;2023-02-28T01:34:04;-1.60;99.90
21387;DHT22;10854;45.922;6.716;2023-02-28T01:36:32;-1.50;99.90
21387;DHT22;10854;45.922;6.716;2023-02-28T01:39:00;-1.50;99.90
21387;DHT22;10854;45.922;6.716;2023-02-28T01:41:30;-1.50;99.90
21387;DHT22;10854;45.922;6.716;2023-02-28T01:44:05;-1.50;99.90
21387;DHT22;10854;45.922;6.716;2023-02-28T01:46:35;-1.50;99.90
21387;DHT22;10854;45.922;6.716;2023-02-28T01:49:13;-1.40;99.90
21387;DHT22;10854;45.922;6.716;2023-02-28T01:51:50;-1.40;99.90
21387;DHT22;10854;45.922;6.716;2023-02-28T01:54:31;-1.30;99.90
21387;DHT22;10854;45.922;6.716;2023-02-28T01:57:09;-1.30;99.90
21387;DHT22;10854;45.922;6.716;2023-02-28T01:59:42;-1.20;99.90
21387;DHT22;10854;45.922;6.716;2023-02-28T02:02:15;-1.20;99.90
21387;DHT22;10854;45.922;6.716;2023-02-28T02:04:54;-1.20;99.90
21387;DHT22;10854;45.922;6.716;2023-02-28T02:07:25;-1.20;99.90
21387;DHT22;10854;45.922;6.716;2023-02-28T02:18:41;-1.10;99.90
21387;DHT22;10854;45.922;6.716;2023-02-28T02:27:20;-1.00;99.90
21387;DHT22;10854;45.922;6.716;2023-02-28T02:30:08;-1.00;99.90
21387;DHT22;10854;45.922;6.716;2023-02-28T02:35:48;-1.00;99.90
21387;DHT22;10854;45.922;6.716;2023-02-28T02:38:38;-0.90;99.90
21387;DHT22;10854;45.922;6.716;2023-02-28T02:41:27;-0.90;99.90
21387;DHT22;10854;45.922;6.716;2023-02-28T02:44:10;-0.90;99.90
21387;DHT22;10854;45.922;6.716;2023-02-28T02:46:44;-0.90;99.90
21387;DHT22;10854;45.922;6.716;2023-02-28T02:49:17;-0.80;99.90
21387;DHT22;10854;45.922;6.716;2023-02-28T02:51:48;-0.80;99.90
21387;DHT22;10854;45.922;6.716;2023-02-28T02:54:23;-0.80;99.90
21387;DHT22;10854;45.922;6.716;2023-02-28T02:56:59;-0.80;99.90
21387;DHT22;10854;45.922;6.716;2023-02-28T02:59:30;-0.80;99.90
21387;DHT22;10854;45.922;6.716;2023-02-28T03:02:06;-0.80;99.90
21387;DHT22;10854;45.922;6.716;2023-02-28T03:04:40;-0.80;99.90
21387;DHT22;10854;45.922;6.716;2023-02-28T03:07:10;-0.70;99.90
21387;DHT22;10854;45.922;6.716;2023-02-28T03:09:38;-0.70;99.90
21387;DHT22;10854;45.922;6.716;2023-02-28T03:12:11;-0.70;99.90
21387;DHT22;10854;45.922;6.716;2023-02-28T03:17:59;-0.70;99.90
21387;DHT22;10854;45.922;6.716;2023-02-28T03:23:21;-0.70;99.90
21387;DHT22;10854;45.922;6.716;2023-02-28T03:26:07;-0.70;99.90
21387;DHT22;10854;45.922;6.716;2023-02-28T03:28:59;-0.70;99.90
21387;DHT22;10854;45.922;6.716;2023-02-28T03:31:54;-0.70;99.90
21387;DHT22;10854;45.922;6.716;2023-02-28T03:34:36;-0.70;99.90
21387;DHT22;10854;45.922;6.716;2023-02-28T03:37:10;-0.70;99.90
21387;DHT22;10854;45.922;6.716;2023-02-28T03:39:45;-0.60;99.90
21387;DHT22;10854;45.922;6.716;2023-02-28T03:42:19;-0.60;99.90
21387;DHT22;10854;45.922;6.716;2023-02-28T03:47:32;-0.60;99.90
21387;DHT22;10854;45.922;6.716;2023-02-28T03:56:17;-0.60;99.90
21387;DHT22;10854;45.922;6.716;2023-02-28T03:58:32;-0.60;99.90
21387;DHT22;10854;45.922;6.716;2023-02-28T04:01:20;-0.60;99.90
21387;DHT22;10854;45.922;6.716;2023-02-28T04:03:50;-0.60;99.90
21387;DHT22;10854;45.922;6.716;2023-02-28T04:06:21;-0.60;99.90
21387;DHT22;10854;45.922;6.716;2023-02-28T04:08:51;-0.60;99.90
21387;DHT22;10854;45.922;6.716;2023-02-28T04:11:27;-0.60;99.90
21387;DHT22;10854;45.922;6.716;2023-02-28T04:13:58;-0.60;99.90
21387;DHT22;10854;45.922;6.716;2023-02-28T04:16:26;-0.60;99.90
21387;DHT22;10854;45.922;6.716;2023-02-28T04:19:06;-0.60;99.90
21387;DHT22;10854;45.922;6.716;2023-02-28T04:21:40;-0.60;99.90
21387;DHT22;10854;45.922;6.716;2023-02-28T04:24:13;-0.60;99.90
21387;DHT22;10854;45.922;6.716;2023-02-28T04:26:47;-0.60;99.90
21387;DHT22;10854;45.922;6.716;2023-02-28T04:31:51;-0.70;99.90
21387;DHT22;10854;45.922;6.716;2023-02-28T04:34:27;-0.70;99.90
21387;DHT22;10854;45.922;6.716;2023-02-28T04:36:57;-0.60;99.90
21387;DHT22;10854;45.922;6.716;2023-02-28T04:39:39;-0.70;99.90
21387;DHT22;10854;45.922;6.716;2023-02-28T04:42:08;-0.70;99.90
21387;DHT22;10854;45.922;6.716;2023-02-28T04:44:36;-0.70;99.90
21387;DHT22;10854;45.922;6.716;2023-02-28T04:47:05;-0.70;99.90
21387;DHT22;10854;45.922;6.716;2023-02-28T04:49:33;-0.70;99.90
21387;DHT22;10854;45.922;6.716;2023-02-28T04:52:02;-0.80;99.90
21387;DHT22;10854;45.922;6.716;2023-02-28T04:54:30;-0.80;99.90
21387;DHT22;10854;45.922;6.716;2023-02-28T04:56:59;-0.80;99.90
21387;DHT22;10854;45.922;6.716;2023-02-28T04:59:28;-0.90;99.90
21387;DHT22;10854;45.922;6.716;2023-02-28T05:01:56;-0.90;99.90
21387;DHT22;10854;45.922;6.716;2023-02-28T05:04:25;-0.90;99.90
21387;DHT22;10854;45.922;6.716;2023-02-28T05:06:53;-0.90;99.90
21387;DHT22;10854;45.922;6.716;2023-02-28T05:09:24;-0.90;99.90
21387;DHT22;10854;45.922;6.716;2023-02-28T05:11:53;-1.00;99.90
21387;DHT22;10854;45.922;6.716;2023-02-28T05:14:21;-1.00;99.90
21387;DHT22;10854;45.922;6.716;2023-02-28T05:16:50;-1.00;99.90
21387;DHT22;10854;45.922;6.716;2023-02-28T05:19:19;-1.00;99.90
21387;DHT22;10854;45.922;6.716;2023-02-28T05:21:53;-1.00;99.90
21387;DHT22;10854;45.922;6.716;2023-02-28T05:24:24;-1.00;99.90
21387;DHT22;10854;45.922;6.716;2023-02-28T05:26:54;-1.10;99.90
21387;DHT22;10854;45.922;6.716;2023-02-28T05:29:23;-1.10;99.90
21387;DHT22;10854;45.922;6.716;2023-02-28T05:31:52;-1.10;99.90
21387;DHT22;10854;45.922;6.716;2023-02-28T05:34:21;-1.20;99.90
21387;DHT22;10854;45.922;6.716;2023-02-28T05:36:49;-1.20;99.90
21387;DHT22;10854;45.922;6.716;2023-02-28T05:39:17;-1.30;99.90
21387;DHT22;10854;45.922;6.716;2023-02-28T05:41:46;-1.30;99.90
21387;DHT22;10854;45.922;6.716;2023-02-28T05:44:15;-1.40;99.90
21387;DHT22;10854;45.922;6.716;2023-02-28T05:46:43;-1.40;99.90
21387;DHT22;10854;45.922;6.716;2023-02-28T05:49:12;-1.40;99.90
21387;DHT22;10854;45.922;6.716;2023-02-28T05:51:40;-1.50;99.90
21387;DHT22;10854;45.922;6.716;2023-02-28T05:54:09;-1.50;99.90
21387;DHT22;10854;45.922;6.716;2023-02-28T05:56:40;-1.50;99.90
21387;DHT22;10854;45.922;6.716;2023-02-28T05:59:12;-1.50;99.90
21387;DHT22;10854;45.922;6.716;2023-02-28T06:01:43;-1.50;99.90
21387;DHT22;10854;45.922;6.716;2023-02-28T06:04:21;-1.50;99.90
21387;DHT22;10854;45.922;6.716;2023-02-28T06:06:58;-1.50;99.90
21387;DHT22;10854;45.922;6.716;2023-02-28T06:09:26;-1.60;99.90
21387;DHT22;10854;45.922;6.716;2023-02-28T06:11:57;-1.60;99.90
21387;DHT22;10854;45.922;6.716;2023-02-28T06:14:25;-1.60;99.90
21387;DHT22;10854;45.922;6.716;2023-02-28T06:16:54;-1.70;99.90
21387;DHT22;10854;45.922;6.716;2023-02-28T06:19:25;-1.70;99.90
21387;DHT22;10854;45.922;6.716;2023-02-28T06:21:55;-1.70;99.90
21387;DHT22;10854;45.922;6.716;2023-02-28T06:24:25;-1.60;99.90
21387;DHT22;10854;45.922;6.716;2023-02-28T06:26:56;-1.60;99.90
21387;DHT22;10854;45.922;6.716;2023-02-28T06:29:26;-1.50;99.90
21387;DHT22;10854;45.922;6.716;2023-02-28T06:31:55;-1.50;99.90
21387;DHT22;10854;45.922;6.716;2023-02-28T06:34:24;-1.50;99.90
21387;DHT22;10854;45.922;6.716;2023-02-28T06:36:52;-1.40;99.90
21387;DHT22;10854;45.922;6.716;2023-02-28T06:39:21;-1.40;99.90
21387;DHT22;10854;45.922;6.716;2023-02-28T06:41:49;-1.40;99.90
21387;DHT22;10854;45.922;6.716;2023-02-28T06:44:23;-1.30;99.90
21387;DHT22;10854;45.922;6.716;2023-02-28T06:46:52;-1.30;99.90
21387;DHT22;10854;45.922;6.716;2023-02-28T06:49:20;-1.20;99.90
21387;DHT22;10854;45.922;6.716;2023-02-28T06:51:49;-1.10;99.90
21387;DHT22;10854;45.922;6.716;2023-02-28T06:54:17;-1.00;99.90
21387;DHT22;10854;45.922;6.716;2023-02-28T06:56:46;-1.00;99.90
21387;DHT22;10854;45.922;6.716;2023-02-28T06:59:15;-0.90;99.90
21387;DHT22;10854;45.922;6.716;2023-02-28T07:01:43;-0.80;99.90
21387;DHT22;10854;45.922;6.716;2023-02-28T07:04:12;-0.70;99.90
21387;DHT22;10854;45.922;6.716;2023-02-28T07:06:41;-0.60;99.90
21387;DHT22;10854;45.922;6.716;2023-02-28T07:09:10;-0.50;99.90
21387;DHT22;10854;45.922;6.716;2023-02-28T07:11:38;-0.40;99.90
21387;DHT22;10854;45.922;6.716;2023-02-28T07:14:07;-0.30;99.90
21387;DHT22;10854;45.922;6.716;2023-02-28T07:16:36;-0.20;99.90
21387;DHT22;10854;45.922;6.716;2023-02-28T07:19:04;-0.10;99.90
21387;DHT22;10854;45.922;6.716;2023-02-28T07:21:33;0.00;99.90
21387;DHT22;10854;45.922;6.716;2023-02-28T07:24:01;0.10;99.90
21387;DHT22;10854;45.922;6.716;2023-02-28T07:26:30;0.20;99.90
21387;DHT22;10854;45.922;6.716;2023-02-28T07:28:58;0.30;99.90
21387;DHT22;10854;45.922;6.716;2023-02-28T07:31:27;0.40;99.90
21387;DHT22;10854;45.922;6.716;2023-02-28T07:33:56;0.50;99.90
21387;DHT22;10854;45.922;6.716;2023-02-28T07:36:24;0.60;99.90
21387;DHT22;10854;45.922;6.716;2023-02-28T07:38:53;0.60;99.90
21387;DHT22;10854;45.922;6.716;2023-02-28T07:41:22;0.70;99.90
21387;DHT22;10854;45.922;6.716;2023-02-28T07:43:54;0.80;99.90
21387;DHT22;10854;45.922;6.716;2023-02-28T07:46:23;0.80;99.90
21387;DHT22;10854;45.922;6.716;2023-02-28T07:48:52;0.90;99.90
21387;DHT22;10854;45.922;6.716;2023-02-28T07:51:22;0.90;99.90
21387;DHT22;10854;45.922;6.716;2023-02-28T07:53:51;0.90;99.90
21387;DHT22;10854;45.922;6.716;2023-02-28T07:56:19;0.90;99.90
21387;DHT22;10854;45.922;6.716;2023-02-28T07:58:48;1.00;99.90
21387;DHT22;10854;45.922;6.716;2023-02-28T08:01:16;1.10;99.90
21387;DHT22;10854;45.922;6.716;2023-02-28T08:03:45;1.30;99.90
21387;DHT22;10854;45.922;6.716;2023-02-28T08:06:22;1.40;99.90
21387;DHT22;10854;45.922;6.716;2023-02-28T08:08:53;1.50;99.90
21387;DHT22;10854;45.922;6.716;2023-02-28T08:11:21;1.60;99.90
21387;DHT22;10854;45.922;6.716;2023-02-28T08:13:50;1.60;99.90
21387;DHT22;10854;45.922;6.716;2023-02-28T08:16:18;1.70;99.90
21387;DHT22;10854;45.922;6.716;2023-02-28T08:18:51;1.70;99.90
21387;DHT22;10854;45.922;6.716;2023-02-28T08:21:20;1.80;99.70
21387;DHT22;10854;45.922;6.716;2023-02-28T08:23:49;1.80;99.30
21387;DHT22;10854;45.922;6.716;2023-02-28T08:26:19;1.90;97.20
21387;DHT22;10854;45.922;6.716;2023-02-28T08:28:48;1.80;96.00
21387;DHT22;10854;45.922;6.716;2023-02-28T08:31:17;1.80;96.00
21387;DHT22;10854;45.922;6.716;2023-02-28T08:33:46;1.80;96.00
21387;DHT22;10854;45.922;6.716;2023-02-28T08:36:18;1.90;95.30
21387;DHT22;10854;45.922;6.716;2023-02-28T08:38:47;1.90;95.20
21387;DHT22;10854;45.922;6.716;2023-02-28T08:41:15;1.90;95.20
21387;DHT22;10854;45.922;6.716;2023-02-28T08:43:44;2.00;95.40
21387;DHT22;10854;45.922;6.716;2023-02-28T08:46:13;2.10;95.30
21387;DHT22;10854;45.922;6.716;2023-02-28T08:48:42;2.30;95.00
21387;DHT22;10854;45.922;6.716;2023-02-28T08:51:14;2.40;94.70
21387;DHT22;10854;45.922;6.716;2023-02-28T08:53:49;2.60;94.40
21387;DHT22;10854;45.922;6.716;2023-02-28T08:56:17;2.70;94.00
21387;DHT22;10854;45.922;6.716;2023-02-28T08:58:47;2.80;93.50
21387;DHT22;10854;45.922;6.716;2023-02-28T09:01:18;2.90;92.70
21387;DHT22;10854;45.922;6.716;2023-02-28T09:03:48;2.90;92.40
21387;DHT22;10854;45.922;6.716;2023-02-28T09:06:18;3.00;92.10
21387;DHT22;10854;45.922;6.716;2023-02-28T09:08:47;3.10;91.80
21387;DHT22;10854;45.922;6.716;2023-02-28T09:11:16;3.00;91.50
21387;DHT22;10854;45.922;6.716;2023-02-28T09:13:46;3.00;90.90
21387;DHT22;10854;45.922;6.716;2023-02-28T09:16:16;2.90;90.20
21387;DHT22;10854;45.922;6.716;2023-02-28T09:18:45;2.80;90.20
21387;DHT22;10854;45.922;6.716;2023-02-28T09:21:16;2.70;90.40
21387;DHT22;10854;45.922;6.716;2023-02-28T09:23:47;2.60;90.50
21387;DHT22;10854;45.922;6.716;2023-02-28T09:26:24;2.70;90.80
21387;DHT22;10854;45.922;6.716;2023-02-28T09:28:53;2.80;90.90
21387;DHT22;10854;45.922;6.716;2023-02-28T09:31:24;3.00;90.70
21387;DHT22;10854;45.922;6.716;2023-02-28T09:33:57;3.30;90.80
21387;DHT22;10854;45.922;6.716;2023-02-28T09:36:27;3.50;90.00
21387;DHT22;10854;45.922;6.716;2023-02-28T09:39:12;3.80;88.40
21387;DHT22;10854;45.922;6.716;2023-02-28T09:41:44;3.90;87.10
21387;DHT22;10854;45.922;6.716;2023-02-28T09:47:01;4.30;85.30
21387;DHT22;10854;45.922;6.716;2023-02-28T09:49:39;4.60;84.90
21387;DHT22;10854;45.922;6.716;2023-02-28T09:52:21;4.90;83.70
21387;DHT22;10854;45.922;6.716;2023-02-28T09:54:51;5.30;82.00
21387;DHT22;10854;45.922;6.716;2023-02-28T09:57:37;5.60;80.80
21387;DHT22;10854;45.922;6.716;2023-02-28T10:05:54;6.70;74.80
21387;DHT22;10854;45.922;6.716;2023-02-28T10:08:32;6.80;70.90
21387;DHT22;10854;45.922;6.716;2023-02-28T10:11:06;7.20;71.00
21387;DHT22;10854;45.922;6.716;2023-02-28T10:13:40;7.70;67.50
21387;DHT22;10854;45.922;6.716;2023-02-28T10:16:20;8.20;64.50
21387;DHT22;10854;45.922;6.716;2023-02-28T10:19:05;8.70;63.30
21387;DHT22;10854;45.922;6.716;2023-02-28T10:21:41;9.40;63.60
21387;DHT22;10854;45.922;6.716;2023-02-28T10:27:13;9.90;58.60
21387;DHT22;10854;45.922;6.716;2023-02-28T10:29:53;9.60;59.10
21387;DHT22;10854;45.922;6.716;2023-02-28T10:32:28;9.30;58.00
21387;DHT22;10854;45.922;6.716;2023-02-28T10:37:40;8.30;58.90
21387;DHT22;10854;45.922;6.716;2023-02-28T10:40:27;8.00;59.40
21387;DHT22;10854;45.922;6.716;2023-02-28T10:43:02;8.00;59.80
21387;DHT22;10854;45.922;6.716;2023-02-28T10:45:33;8.40;60.90
21387;DHT22;10854;45.922;6.716;2023-02-28T11:01:45;10.00;54.70
21387;DHT22;10854;45.922;6.716;2023-02-28T11:04:34;9.80;54.90
21387;DHT22;10854;45.922;6.716;2023-02-28T11:07:22;9.30;56.20
21387;DHT22;10854;45.922;6.716;2023-02-28T11:09:54;9.00;57.00
21387;DHT22;10854;45.922;6.716;2023-02-28T11:15:24;8.90;56.70
21387;DHT22;10854;45.922;6.716;2023-02-28T11:20:50;9.40;57.50
21387;DHT22;10854;45.922;6.716;2023-02-28T11:23:20;9.60;55.50
21387;DHT22;10854;45.922;6.716;2023-02-28T11:25:54;9.90;55.60
21387;DHT22;10854;45.922;6.716;2023-02-28T11:33:44;11.00;52.60
21387;DHT22;10854;45.922;6.716;2023-02-28T11:36:25;10.70;52.10
21387;DHT22;10854;45.922;6.716;2023-02-28T11:39:00;10.30;52.70
21387;DHT22;10854;45.922;6.716;2023-02-28T11:46:59;10.20;53.00
21387;DHT22;10854;45.922;6.716;2023-02-28T12:00:50;10.40;51.90
21387;DHT22;10854;45.922;6.716;2023-02-28T12:06:50;9.70;55.00
21387;DHT22;10854;45.922;6.716;2023-02-28T12:20:37;9.30;55.30
21387;DHT22;10854;45.922;6.716;2023-02-28T12:26:34;9.30;55.60
21387;DHT22;10854;45.922;6.716;2023-02-28T12:32:09;9.80;56.00
21387;DHT22;10854;45.922;6.716;2023-02-28T12:35:12;10.00;55.10
21387;DHT22;10854;45.922;6.716;2023-02-28T12:38:02;10.10;55.00
21387;DHT22;10854;45.922;6.716;2023-02-28T12:40:42;10.00;54.50
21387;DHT22;10854;45.922;6.716;2023-02-28T12:43:13;9.90;55.80
21387;DHT22;10854;45.922;6.716;2023-02-28T12:45:53;9.80;55.80
21387;DHT22;10854;45.922;6.716;2023-02-28T12:48:46;9.80;56.00
21387;DHT22;10854;45.922;6.716;2023-02-28T12:51:16;9.80;56.00
21387;DHT22;10854;45.922;6.716;2023-02-28T12:54:00;9.90;56.10
21387;DHT22;10854;45.922;6.716;2023-02-28T13:02:02;10.90;54.70
21387;DHT22;10854;45.922;6.716;2023-02-28T13:08:22;12.20;52.70
21387;DHT22;10854;45.922;6.716;2023-02-28T13:10:53;12.30;51.70
21387;DHT22;10854;45.922;6.716;2023-02-28T13:13:29;12.10;51.90
21387;DHT22;10854;45.922;6.716;2023-02-28T13:16:09;12.00;51.90
21387;DHT22;10854;45.922;6.716;2023-02-28T13:18:43;11.80;51.90
21387;DHT22;10854;45.922;6.716;2023-02-28T13:21:26;11.80;52.30
21387;DHT22;10854;45.922;6.716;2023-02-28T13:29:01;11.80;52.20
21387;DHT22;10854;45.922;6.716;2023-02-28T13:31:30;11.80;51.60
21387;DHT22;10854;45.922;6.716;2023-02-28T13:34:12;11.50;51.70
21387;DHT22;10854;45.922;6.716;2023-02-28T13:36:41;11.40;52.10
21387;DHT22;10854;45.922;6.716;2023-02-28T13:48:04;11.30;52.50
21387;DHT22;10854;45.922;6.716;2023-02-28T13:50:38;11.50;52.60
21387;DHT22;10854;45.922;6.716;2023-02-28T13:55:59;11.60;51.90
21387;DHT22;10854;45.922;6.716;2023-02-28T13:58:39;11.60;52.30
21387;DHT22;10854;45.922;6.716;2023-02-28T14:04:11;11.70;52.20
21387;DHT22;10854;45.922;6.716;2023-02-28T14:06:51;11.70;52.20
21387;DHT22;10854;45.922;6.716;2023-02-28T14:15:44;10.80;52.30
21387;DHT22;10854;45.922;6.716;2023-02-28T14:18:28;10.60;52.70
21387;DHT22;10854;45.922;6.716;2023-02-28T14:23:56;10.40;53.00
21387;DHT22;10854;45.922;6.716;2023-02-28T14:32:37;10.60;53.70
21387;DHT22;10854;45.922;6.716;2023-02-28T14:37:51;10.30;53.60
21387;DHT22;10854;45.922;6.716;2023-02-28T14:40:33;10.00;54.10
21387;DHT22;10854;45.922;6.716;2023-02-28T14:43:05;9.70;55.10
21387;DHT22;10854;45.922;6.716;2023-02-28T14:45:35;9.50;55.70
21387;DHT22;10854;45.922;6.716;2023-02-28T14:48:09;9.20;56.50
21387;DHT22;10854;45.922;6.716;2023-02-28T14:50:38;8.90;57.10
21387;DHT22;10854;45.922;6.716;2023-02-28T14:53:15;8.60;57.80
21387;DHT22;10854;45.922;6.716;2023-02-28T14:55:47;8.40;58.50
21387;DHT22;10854;45.922;6.716;2023-02-28T14:58:28;8.30;59.10
21387;DHT22;10854;45.922;6.716;2023-02-28T15:01:00;8.10;59.40
21387;DHT22;10854;45.922;6.716;2023-02-28T15:06:05;8.00;59.70
21387;DHT22;10854;45.922;6.716;2023-02-28T15:08:34;8.00;59.90
21387;DHT22;10854;45.922;6.716;2023-02-28T15:13:44;8.00;60.30
21387;DHT22;10854;45.922;6.716;2023-02-28T15:16:20;7.80;60.30
21387;DHT22;10854;45.922;6.716;2023-02-28T15:18:55;7.60;60.30
21387;DHT22;10854;45.922;6.716;2023-02-28T15:21:33;7.40;60.90
21387;DHT22;10854;45.922;6.716;2023-02-28T15:27:05;7.50;61.60
21387;DHT22;10854;45.922;6.716;2023-02-28T15:29:47;7.60;61.40
21387;DHT22;10854;45.922;6.716;2023-02-28T15:35:16;8.20;60.50
21387;DHT22;10854;45.922;6.716;2023-02-28T15:37:54;8.20;60.00
21387;DHT22;10854;45.922;6.716;2023-02-28T15:40:30;8.00;59.80
21387;DHT22;10854;45.922;6.716;2023-02-28T15:48:35;7.40;61.40
21387;DHT22;10854;45.922;6.716;2023-02-28T15:51:15;7.10;62.10
21387;DHT22;10854;45.922;6.716;2023-02-28T15:53:59;6.90;62.50
21387;DHT22;10854;45.922;6.716;2023-02-28T15:56:33;6.70;63.30
21387;DHT22;10854;45.922;6.716;2023-02-28T15:59:06;6.60;63.60
21387;DHT22;10854;45.922;6.716;2023-02-28T16:01:37;6.40;64.30
21387;DHT22;10854;45.922;6.716;2023-02-28T16:04:14;6.20;65.00
21387;DHT22;10854;45.922;6.716;2023-02-28T16:06:53;6.00;65.60
21387;DHT22;10854;45.922;6.716;2023-02-28T16:09:28;5.80;66.60
21387;DHT22;10854;45.922;6.716;2023-02-28T16:12:02;5.60;66.80
21387;DHT22;10854;45.922;6.716;2023-02-28T16:14:31;5.50;67.70
21387;DHT22;10854;45.922;6.716;2023-02-28T16:17:09;5.30;69.00
21387;DHT22;10854;45.922;6.716;2023-02-28T16:19:42;5.20;68.70
21387;DHT22;10854;45.922;6.716;2023-02-28T16:22:10;5.00;69.20
21387;DHT22;10854;45.922;6.716;2023-02-28T16:24:39;4.90;69.80
21387;DHT22;10854;45.922;6.716;2023-02-28T16:27:30;4.80;70.20
21387;DHT22;10854;45.922;6.716;2023-02-28T16:30:00;4.80;69.90
21387;DHT22;10854;45.922;6.716;2023-02-28T16:32:29;4.70;69.80
21387;DHT22;10854;45.922;6.716;2023-02-28T16:34:59;4.70;69.70
21387;DHT22;10854;45.922;6.716;2023-02-28T16:37:27;4.70;69.80
21387;DHT22;10854;45.922;6.716;2023-02-28T16:39:56;4.60;69.90
21387;DHT22;10854;45.922;6.716;2023-02-28T16:42:27;4.60;70.30
21387;DHT22;10854;45.922;6.716;2023-02-28T16:44:56;4.50;70.20
21387;DHT22;10854;45.922;6.716;2023-02-28T16:47:25;4.50;70.50
21387;DHT22;10854;45.922;6.716;2023-02-28T16:49:54;4.40;71.30
21387;DHT22;10854;45.922;6.716;2023-02-28T16:52:23;4.30;71.70
21387;DHT22;10854;45.922;6.716;2023-02-28T16:54:51;4.30;72.10
21387;DHT22;10854;45.922;6.716;2023-02-28T16:57:21;4.20;72.30
21387;DHT22;10854;45.922;6.716;2023-02-28T16:59:51;4.10;72.10
21387;DHT22;10854;45.922;6.716;2023-02-28T17:02:19;4.10;72.70
21387;DHT22;10854;45.922;6.716;2023-02-28T17:04:48;4.00;72.70
21387;DHT22;10854;45.922;6.716;2023-02-28T17:07:17;3.90;73.30
21387;DHT22;10854;45.922;6.716;2023-02-28T17:09:45;3.90;73.80
21387;DHT22;10854;45.922;6.716;2023-02-28T17:12:14;3.80;73.20
21387;DHT22;10854;45.922;6.716;2023-02-28T17:14:43;3.70;73.60
21387;DHT22;10854;45.922;6.716;2023-02-28T17:17:20;3.60;73.50
21387;DHT22;10854;45.922;6.716;2023-02-28T17:19:50;3.50;73.40
21387;DHT22;10854;45.922;6.716;2023-02-28T17:22:19;3.50;73.50
21387;DHT22;10854;45.922;6.716;2023-02-28T17:24:47;3.30;73.30
21387;DHT22;10854;45.922;6.716;2023-02-28T17:27:16;3.20;73.80
21387;DHT22;10854;45.922;6.716;2023-02-28T17:29:45;3.10;74.60
21387;DHT22;10854;45.922;6.716;2023-02-28T17:32:15;3.00;75.60
21387;DHT22;10854;45.922;6.716;2023-02-28T17:34:45;2.90;75.60
21387;DHT22;10854;45.922;6.716;2023-02-28T17:37:13;2.90;75.70
21387;DHT22;10854;45.922;6.716;2023-02-28T17:39:42;2.70;75.70
21387;DHT22;10854;45.922;6.716;2023-02-28T17:42:10;2.60;76.20
21387;DHT22;10854;45.922;6.716;2023-02-28T17:44:41;2.60;76.90
21387;DHT22;10854;45.922;6.716;2023-02-28T17:47:11;2.50;77.10
21387;DHT22;10854;45.922;6.716;2023-02-28T17:49:40;2.30;77.40
21387;DHT22;10854;45.922;6.716;2023-02-28T17:52:09;2.30;77.50
21387;DHT22;10854;45.922;6.716;2023-02-28T17:54:38;2.10;78.00
21387;DHT22;10854;45.922;6.716;2023-02-28T17:57:14;2.00;78.60
21387;DHT22;10854;45.922;6.716;2023-02-28T17:59:45;1.90;79.00
21387;DHT22;10854;45.922;6.716;2023-02-28T18:02:14;1.80;79.70
21387;DHT22;10854;45.922;6.716;2023-02-28T18:04:46;1.70;79.80
21387;DHT22;10854;45.922;6.716;2023-02-28T18:07:15;1.60;80.00
21387;DHT22;10854;45.922;6.716;2023-02-28T18:09:51;1.50;80.00
21387;DHT22;10854;45.922;6.716;2023-02-28T18:12:21;1.40;80.20
21387;DHT22;10854;45.922;6.716;2023-02-28T18:14:50;1.30;80.30
21387;DHT22;10854;45.922;6.716;2023-02-28T18:17:19;1.10;80.70
21387;DHT22;10854;45.922;6.716;2023-02-28T18:19:48;1.10;81.30
21387;DHT22;10854;45.922;6.716;2023-02-28T18:22:19;1.00;81.80
21387;DHT22;10854;45.922;6.716;2023-02-28T18:24:48;0.90;82.10
21387;DHT22;10854;45.922;6.716;2023-02-28T18:27:17;0.90;82.60
21387;DHT22;10854;45.922;6.716;2023-02-28T18:29:46;0.80;82.50
21387;DHT22;10854;45.922;6.716;2023-02-28T18:32:16;0.70;83.00
21387;DHT22;10854;45.922;6.716;2023-02-28T18:34:45;0.60;83.40
21387;DHT22;10854;45.922;6.716;2023-02-28T18:37:14;0.50;84.20
21387;DHT22;10854;45.922;6.716;2023-02-28T18:39:45;0.40;84.40
21387;DHT22;10854;45.922;6.716;2023-02-28T18:42:14;0.30;85.20
21387;DHT22;10854;45.922;6.716;2023-02-28T18:44:42;0.30;86.30
21387;DHT22;10854;45.922;6.716;2023-02-28T18:47:10;0.20;86.90
21387;DHT22;10854;45.922;6.716;2023-02-28T18:49:39;0.10;88.00
21387;DHT22;10854;45.922;6.716;2023-02-28T18:52:07;0.10;89.00
21387;DHT22;10854;45.922;6.716;2023-02-28T18:54:36;0.00;90.00
21387;DHT22;10854;45.922;6.716;2023-02-28T18:57:04;0.00;91.00
21387;DHT22;10854;45.922;6.716;2023-02-28T18:59:34;-0.10;92.40
21387;DHT22;10854;45.922;6.716;2023-02-28T19:02:03;-0.10;93.10
21387;DHT22;10854;45.922;6.716;2023-02-28T19:04:31;-0.20;93.70